sensor_id;sensor_type;location;lat;lon;timestamp;P1;durP1;ratioP1;P2;durP2;ratioP2
37535;SDS011;23379;51.554;6.736;2023-11-19T00:01:31;8.73;;;5.85;;
37535;SDS011;23379;51.554;6.736;2023-11-19T00:03:57;9.77;;;6.20;;
37535;SDS011;23379;51.554;6.736;2023-11-19T00:06:23;8.73;;;6.22;;
37535;SDS011;23379;51.554;6.736;2023-11-19T00:08:48;9.20;;;6.10;;
37535;SDS011;23379;51.554;6.736;2023-11-19T00:11:15;13.27;;;6.70;;
37535;SDS011;23379;51.554;6.736;2023-11-19T00:13:40;6.72;;;6.03;;
37535;SDS011;23379;51.554;6.736;2023-11-19T00:16:06;6.50;;;5.82;;
37535;SDS011;23379;51.554;6.736;2023-11-19T00:18:32;7.00;;;5.00;;
37535;SDS011;23379;51.554;6.736;2023-11-19T00:20:57;9.57;;;4.97;;
37535;SDS011;23379;51.554;6.736;2023-11-19T00:23:23;6.20;;;5.15;;
37535;SDS011;23379;51.554;6.736;2023-11-19T00:25:48;6.85;;;4.78;;
37535;SDS011;23379;51.554;6.736;2023-11-19T00:28:13;5.85;;;4.88;;
37535;SDS011;23379;51.554;6.736;2023-11-19T00:30:39;8.73;;;4.90;;
37535;SDS011;23379;51.554;6.736;2023-11-19T00:33:06;5.68;;;4.28;;
37535;SDS011;23379;51.554;6.736;2023-11-19T00:35:31;4.97;;;4.50;;
37535;SDS011;23379;51.554;6.736;2023-11-19T00:37:57;6.68;;;4.38;;
37535;SDS011;23379;51.554;6.736;2023-11-19T00:40:22;4.90;;;4.20;;
37535;SDS011;23379;51.554;6.736;2023-11-19T00:42:48;4.43;;;3.55;;
37535;SDS011;23379;51.554;6.736;2023-11-19T00:45:14;7.78;;;3.72;;
37535;SDS011;23379;51.554;6.736;2023-11-19T00:47:39;3.90;;;3.50;;
37535;SDS011;23379;51.554;6.736;2023-11-19T00:50:04;3.63;;;3.30;;
37535;SDS011;23379;51.554;6.736;2023-11-19T00:52:30;3.85;;;3.22;;
37535;SDS011;23379;51.554;6.736;2023-11-19T00:54:56;6.72;;;3.50;;
37535;SDS011;23379;51.554;6.736;2023-11-19T00:57:22;6.57;;;3.00;;
37535;SDS011;23379;51.554;6.736;2023-11-19T00:59:47;4.03;;;3.63;;
37535;SDS011;23379;51.554;6.736;2023-11-19T01:02:12;4.03;;;3.30;;
37535;SDS011;23379;51.554;6.736;2023-11-19T01:04:39;3.35;;;2.80;;
37535;SDS011;23379;51.554;6.736;2023-11-19T01:07:04;3.63;;;3.30;;
37535;SDS011;23379;51.554;6.736;2023-11-19T01:09:31;3.35;;;3.05;;
37535;SDS011;23379;51.554;6.736;2023-11-19T01:11:57;2.90;;;2.70;;
37535;SDS011;23379;51.554;6.736;2023-11-19T01:14:25;2.80;;;2.60;;
37535;SDS011;23379;51.554;6.736;2023-11-19T01:16:51;5.38;;;2.45;;
37535;SDS011;23379;51.554;6.736;2023-11-19T01:19:18;3.38;;;3.00;;
37535;SDS011;23379;51.554;6.736;2023-11-19T01:21:44;4.13;;;2.85;;
37535;SDS011;23379;51.554;6.736;2023-11-19T01:24:10;3.78;;;2.55;;
37535;SDS011;23379;51.554;6.736;2023-11-19T01:26:38;2.90;;;2.63;;
37535;SDS011;23379;51.554;6.736;2023-11-19T01:29:03;4.35;;;2.90;;
37535;SDS011;23379;51.554;6.736;2023-11-19T01:31:29;3.25;;;2.42;;
37535;SDS011;23379;51.554;6.736;2023-11-19T01:33:56;4.28;;;2.60;;
37535;SDS011;23379;51.554;6.736;2023-11-19T01:36:22;2.97;;;2.67;;
37535;SDS011;23379;51.554;6.736;2023-11-19T01:38:48;2.67;;;2.47;;
37535;SDS011;23379;51.554;6.736;2023-11-19T01:41:13;3.35;;;2.53;;
37535;SDS011;23379;51.554;6.736;2023-11-19T01:43:39;2.65;;;2.45;;
37535;SDS011;23379;51.554;6.736;2023-11-19T01:46:08;2.83;;;2.28;;
37535;SDS011;23379;51.554;6.736;2023-11-19T01:48:35;3.70;;;2.35;;
37535;SDS011;23379;51.554;6.736;2023-11-19T01:51:05;2.27;;;2.00;;
37535;SDS011;23379;51.554;6.736;2023-11-19T01:53:31;4.95;;;2.10;;
37535;SDS011;23379;51.554;6.736;2023-11-19T01:55:59;2.63;;;2.42;;
37535;SDS011;23379;51.554;6.736;2023-11-19T01:58:26;3.85;;;2.10;;
37535;SDS011;23379;51.554;6.736;2023-11-19T02:00:51;3.97;;;2.58;;
37535;SDS011;23379;51.554;6.736;2023-11-19T02:03:17;4.32;;;2.70;;
37535;SDS011;23379;51.554;6.736;2023-11-19T02:05:44;3.00;;;2.10;;
37535;SDS011;23379;51.554;6.736;2023-11-19T02:08:13;3.28;;;2.50;;
37535;SDS011;23379;51.554;6.736;2023-11-19T02:10:39;3.95;;;2.28;;
37535;SDS011;23379;51.554;6.736;2023-11-19T02:13:04;5.78;;;2.70;;
37535;SDS011;23379;51.554;6.736;2023-11-19T02:15:31;3.15;;;2.20;;
37535;SDS011;23379;51.554;6.736;2023-11-19T02:17:57;4.20;;;2.58;;
37535;SDS011;23379;51.554;6.736;2023-11-19T02:20:22;4.55;;;2.38;;
37535;SDS011;23379;51.554;6.736;2023-11-19T02:22:49;8.20;;;2.92;;
37535;SDS011;23379;51.554;6.736;2023-11-19T02:25:22;5.32;;;2.50;;
37535;SDS011;23379;51.554;6.736;2023-11-19T02:27:56;5.82;;;2.55;;
37535;SDS011;23379;51.554;6.736;2023-11-19T02:30:23;11.77;;;2.47;;
37535;SDS011;23379;51.554;6.736;2023-11-19T02:32:53;9.00;;;2.53;;
37535;SDS011;23379;51.554;6.736;2023-11-19T02:35:23;7.22;;;2.47;;
37535;SDS011;23379;51.554;6.736;2023-11-19T02:37:49;4.53;;;2.63;;
37535;SDS011;23379;51.554;6.736;2023-11-19T02:40:14;3.92;;;2.55;;
37535;SDS011;23379;51.554;6.736;2023-11-19T02:42:40;6.45;;;2.40;;
37535;SDS011;23379;51.554;6.736;2023-11-19T02:45:05;3.67;;;2.10;;
37535;SDS011;23379;51.554;6.736;2023-11-19T02:47:33;6.45;;;2.67;;
37535;SDS011;23379;51.554;6.736;2023-11-19T02:49:59;11.10;;;2.20;;
37535;SDS011;23379;51.554;6.736;2023-11-19T02:52:25;6.10;;;2.25;;
37535;SDS011;23379;51.554;6.736;2023-11-19T02:54:50;4.50;;;2.10;;
37535;SDS011;23379;51.554;6.736;2023-11-19T02:57:16;2.70;;;1.70;;
37535;SDS011;23379;51.554;6.736;2023-11-19T02:59:44;8.27;;;2.42;;
37535;SDS011;23379;51.554;6.736;2023-11-19T03:02:10;13.07;;;2.67;;
37535;SDS011;23379;51.554;6.736;2023-11-19T03:04:40;7.22;;;2.35;;
37535;SDS011;23379;51.554;6.736;2023-11-19T03:07:08;6.30;;;2.35;;
37535;SDS011;23379;51.554;6.736;2023-11-19T03:09:33;9.38;;;2.42;;
37535;SDS011;23379;51.554;6.736;2023-11-19T03:12:00;4.35;;;2.00;;
37535;SDS011;23379;51.554;6.736;2023-11-19T03:14:26;8.90;;;2.35;;
37535;SDS011;23379;51.554;6.736;2023-11-19T03:16:51;10.45;;;2.33;;
37535;SDS011;23379;51.554;6.736;2023-11-19T03:19:17;6.30;;;2.53;;
37535;SDS011;23379;51.554;6.736;2023-11-19T03:21:42;8.15;;;2.20;;
37535;SDS011;23379;51.554;6.736;2023-11-19T03:24:07;6.72;;;2.35;;
37535;SDS011;23379;51.554;6.736;2023-11-19T03:26:33;5.85;;;2.20;;
37535;SDS011;23379;51.554;6.736;2023-11-19T03:28:59;12.70;;;2.47;;
37535;SDS011;23379;51.554;6.736;2023-11-19T03:31:25;11.60;;;2.30;;
37535;SDS011;23379;51.554;6.736;2023-11-19T03:33:51;10.57;;;2.38;;
37535;SDS011;23379;51.554;6.736;2023-11-19T03:36:16;8.80;;;2.25;;
37535;SDS011;23379;51.554;6.736;2023-11-19T03:38:42;12.75;;;2.67;;
37535;SDS011;23379;51.554;6.736;2023-11-19T03:41:14;14.00;;;2.92;;
37535;SDS011;23379;51.554;6.736;2023-11-19T03:43:40;17.42;;;2.95;;
37535;SDS011;23379;51.554;6.736;2023-11-19T03:46:16;16.02;;;3.03;;
37535;SDS011;23379;51.554;6.736;2023-11-19T03:48:49;14.80;;;2.88;;
37535;SDS011;23379;51.554;6.736;2023-11-19T03:51:14;18.50;;;3.10;;
37535;SDS011;23379;51.554;6.736;2023-11-19T03:53:46;9.05;;;2.60;;
37535;SDS011;23379;51.554;6.736;2023-11-19T03:56:12;14.95;;;3.00;;
37535;SDS011;23379;51.554;6.736;2023-11-19T03:58:38;18.60;;;2.83;;
37535;SDS011;23379;51.554;6.736;2023-11-19T04:01:04;14.82;;;3.28;;
37535;SDS011;23379;51.554;6.736;2023-11-19T04:03:30;16.23;;;2.97;;
37535;SDS011;23379;51.554;6.736;2023-11-19T04:05:55;7.90;;;2.58;;
37535;SDS011;23379;51.554;6.736;2023-11-19T04:08:21;15.32;;;3.33;;
37535;SDS011;23379;51.554;6.736;2023-11-19T04:10:46;13.10;;;3.35;;
37535;SDS011;23379;51.554;6.736;2023-11-19T04:13:13;17.67;;;2.80;;
37535;SDS011;23379;51.554;6.736;2023-11-19T04:15:38;18.65;;;3.08;;
37535;SDS011;23379;51.554;6.736;2023-11-19T04:18:04;18.65;;;3.17;;
37535;SDS011;23379;51.554;6.736;2023-11-19T04:20:29;15.05;;;3.85;;
37535;SDS011;23379;51.554;6.736;2023-11-19T04:22:54;13.35;;;3.15;;
37535;SDS011;23379;51.554;6.736;2023-11-19T04:25:21;11.90;;;2.88;;
37535;SDS011;23379;51.554;6.736;2023-11-19T04:27:46;16.92;;;3.70;;
37535;SDS011;23379;51.554;6.736;2023-11-19T04:30:13;10.13;;;3.30;;
37535;SDS011;23379;51.554;6.736;2023-11-19T04:32:38;12.20;;;3.42;;
37535;SDS011;23379;51.554;6.736;2023-11-19T04:35:04;12.70;;;3.33;;
37535;SDS011;23379;51.554;6.736;2023-11-19T04:37:31;16.38;;;3.67;;
37535;SDS011;23379;51.554;6.736;2023-11-19T04:39:57;19.48;;;3.63;;
37535;SDS011;23379;51.554;6.736;2023-11-19T04:42:22;22.55;;;3.72;;
37535;SDS011;23379;51.554;6.736;2023-11-19T04:44:47;24.98;;;4.18;;
37535;SDS011;23379;51.554;6.736;2023-11-19T04:47:13;24.20;;;3.97;;
37535;SDS011;23379;51.554;6.736;2023-11-19T04:49:42;24.73;;;4.38;;
37535;SDS011;23379;51.554;6.736;2023-11-19T04:52:10;29.38;;;4.63;;
37535;SDS011;23379;51.554;6.736;2023-11-19T04:54:40;19.15;;;3.65;;
37535;SDS011;23379;51.554;6.736;2023-11-19T04:57:09;20.30;;;3.17;;
37535;SDS011;23379;51.554;6.736;2023-11-19T04:59:38;18.25;;;3.88;;
37535;SDS011;23379;51.554;6.736;2023-11-19T05:02:03;19.33;;;3.40;;
37535;SDS011;23379;51.554;6.736;2023-11-19T05:04:29;22.80;;;4.22;;
37535;SDS011;23379;51.554;6.736;2023-11-19T05:06:55;14.15;;;3.40;;
37535;SDS011;23379;51.554;6.736;2023-11-19T05:09:20;20.95;;;3.33;;
37535;SDS011;23379;51.554;6.736;2023-11-19T05:11:46;24.08;;;4.03;;
37535;SDS011;23379;51.554;6.736;2023-11-19T05:14:11;25.40;;;4.07;;
37535;SDS011;23379;51.554;6.736;2023-11-19T05:16:39;20.00;;;4.20;;
37535;SDS011;23379;51.554;6.736;2023-11-19T05:19:04;27.08;;;4.30;;
37535;SDS011;23379;51.554;6.736;2023-11-19T05:21:30;17.25;;;3.67;;
37535;SDS011;23379;51.554;6.736;2023-11-19T05:23:55;20.67;;;3.90;;
37535;SDS011;23379;51.554;6.736;2023-11-19T05:26:22;21.00;;;3.92;;
37535;SDS011;23379;51.554;6.736;2023-11-19T05:28:48;19.00;;;4.20;;
37535;SDS011;23379;51.554;6.736;2023-11-19T05:31:15;24.73;;;4.47;;
37535;SDS011;23379;51.554;6.736;2023-11-19T05:33:41;15.35;;;3.50;;
37535;SDS011;23379;51.554;6.736;2023-11-19T05:36:07;15.48;;;3.67;;
37535;SDS011;23379;51.554;6.736;2023-11-19T05:38:33;26.08;;;4.25;;
37535;SDS011;23379;51.554;6.736;2023-11-19T05:41:04;16.15;;;4.05;;
37535;SDS011;23379;51.554;6.736;2023-11-19T05:43:30;21.05;;;4.45;;
37535;SDS011;23379;51.554;6.736;2023-11-19T05:45:56;13.90;;;3.45;;
37535;SDS011;23379;51.554;6.736;2023-11-19T05:48:21;23.92;;;5.05;;
37535;SDS011;23379;51.554;6.736;2023-11-19T05:50:47;18.42;;;3.58;;
37535;SDS011;23379;51.554;6.736;2023-11-19T05:53:14;18.13;;;4.20;;
37535;SDS011;23379;51.554;6.736;2023-11-19T05:55:39;20.63;;;4.28;;
37535;SDS011;23379;51.554;6.736;2023-11-19T05:58:11;21.10;;;3.35;;
37535;SDS011;23379;51.554;6.736;2023-11-19T06:00:37;19.20;;;3.78;;
37535;SDS011;23379;51.554;6.736;2023-11-19T06:03:09;21.48;;;3.83;;
37535;SDS011;23379;51.554;6.736;2023-11-19T06:05:34;24.50;;;4.32;;
37535;SDS011;23379;51.554;6.736;2023-11-19T06:08:00;27.58;;;4.25;;
37535;SDS011;23379;51.554;6.736;2023-11-19T06:10:25;20.70;;;4.43;;
37535;SDS011;23379;51.554;6.736;2023-11-19T06:12:59;24.80;;;4.68;;
37535;SDS011;23379;51.554;6.736;2023-11-19T06:15:27;26.45;;;4.28;;
37535;SDS011;23379;51.554;6.736;2023-11-19T06:17:53;21.55;;;4.47;;
37535;SDS011;23379;51.554;6.736;2023-11-19T06:20:19;17.52;;;4.20;;
37535;SDS011;23379;51.554;6.736;2023-11-19T06:22:45;28.98;;;5.63;;
37535;SDS011;23379;51.554;6.736;2023-11-19T06:25:10;27.55;;;4.75;;
37535;SDS011;23379;51.554;6.736;2023-11-19T06:27:36;25.80;;;4.80;;
37535;SDS011;23379;51.554;6.736;2023-11-19T06:30:01;30.05;;;4.50;;
37535;SDS011;23379;51.554;6.736;2023-11-19T06:32:27;17.52;;;3.80;;
37535;SDS011;23379;51.554;6.736;2023-11-19T06:34:53;24.13;;;4.07;;
37535;SDS011;23379;51.554;6.736;2023-11-19T06:37:18;25.30;;;4.47;;
37535;SDS011;23379;51.554;6.736;2023-11-19T06:39:44;19.63;;;4.18;;
37535;SDS011;23379;51.554;6.736;2023-11-19T06:42:09;18.48;;;3.80;;
37535;SDS011;23379;51.554;6.736;2023-11-19T06:44:35;17.60;;;4.03;;
37535;SDS011;23379;51.554;6.736;2023-11-19T06:47:00;21.77;;;4.18;;
37535;SDS011;23379;51.554;6.736;2023-11-19T06:49:25;19.30;;;3.88;;
37535;SDS011;23379;51.554;6.736;2023-11-19T06:51:51;23.80;;;4.80;;
37535;SDS011;23379;51.554;6.736;2023-11-19T06:54:16;23.38;;;4.70;;
37535;SDS011;23379;51.554;6.736;2023-11-19T06:56:41;27.95;;;5.10;;
37535;SDS011;23379;51.554;6.736;2023-11-19T06:59:07;27.63;;;5.32;;
37535;SDS011;23379;51.554;6.736;2023-11-19T07:01:36;21.50;;;4.38;;
37535;SDS011;23379;51.554;6.736;2023-11-19T07:04:02;23.73;;;4.22;;
37535;SDS011;23379;51.554;6.736;2023-11-19T07:06:34;30.15;;;4.97;;
37535;SDS011;23379;51.554;6.736;2023-11-19T07:09:03;21.63;;;4.78;;
37535;SDS011;23379;51.554;6.736;2023-11-19T07:11:35;26.25;;;4.03;;
37535;SDS011;23379;51.554;6.736;2023-11-19T07:14:03;20.17;;;3.80;;
37535;SDS011;23379;51.554;6.736;2023-11-19T07:16:29;27.90;;;4.75;;
37535;SDS011;23379;51.554;6.736;2023-11-19T07:18:55;29.10;;;4.85;;
37535;SDS011;23379;51.554;6.736;2023-11-19T07:21:20;23.38;;;4.80;;
37535;SDS011;23379;51.554;6.736;2023-11-19T07:23:45;16.33;;;3.92;;
37535;SDS011;23379;51.554;6.736;2023-11-19T07:26:11;19.08;;;4.03;;
37535;SDS011;23379;51.554;6.736;2023-11-19T07:28:37;28.45;;;4.63;;
37535;SDS011;23379;51.554;6.736;2023-11-19T07:31:04;43.15;;;5.30;;
37535;SDS011;23379;51.554;6.736;2023-11-19T07:33:33;16.48;;;3.75;;
37535;SDS011;23379;51.554;6.736;2023-11-19T07:35:58;21.02;;;4.20;;
37535;SDS011;23379;51.554;6.736;2023-11-19T07:38:24;25.70;;;4.95;;
37535;SDS011;23379;51.554;6.736;2023-11-19T07:40:49;17.50;;;3.65;;
37535;SDS011;23379;51.554;6.736;2023-11-19T07:43:15;30.52;;;4.68;;
37535;SDS011;23379;51.554;6.736;2023-11-19T07:45:40;20.60;;;3.47;;
37535;SDS011;23379;51.554;6.736;2023-11-19T07:48:09;19.52;;;3.92;;
37535;SDS011;23379;51.554;6.736;2023-11-19T07:50:36;26.75;;;4.55;;
37535;SDS011;23379;51.554;6.736;2023-11-19T07:53:01;23.50;;;4.30;;
37535;SDS011;23379;51.554;6.736;2023-11-19T07:55:29;30.65;;;5.10;;
37535;SDS011;23379;51.554;6.736;2023-11-19T07:57:55;28.17;;;4.55;;
37535;SDS011;23379;51.554;6.736;2023-11-19T08:00:21;28.52;;;4.30;;
37535;SDS011;23379;51.554;6.736;2023-11-19T08:02:46;27.50;;;4.57;;
37535;SDS011;23379;51.554;6.736;2023-11-19T08:05:12;23.90;;;4.18;;
37535;SDS011;23379;51.554;6.736;2023-11-19T08:07:37;26.13;;;4.40;;
37535;SDS011;23379;51.554;6.736;2023-11-19T08:10:03;28.98;;;4.82;;
37535;SDS011;23379;51.554;6.736;2023-11-19T08:12:30;24.35;;;4.25;;
37535;SDS011;23379;51.554;6.736;2023-11-19T08:14:56;25.10;;;4.43;;
37535;SDS011;23379;51.554;6.736;2023-11-19T08:17:23;18.50;;;4.00;;
37535;SDS011;23379;51.554;6.736;2023-11-19T08:19:49;26.52;;;4.70;;
37535;SDS011;23379;51.554;6.736;2023-11-19T08:22:14;27.17;;;4.25;;
37535;SDS011;23379;51.554;6.736;2023-11-19T08:24:39;28.83;;;4.57;;
37535;SDS011;23379;51.554;6.736;2023-11-19T08:27:05;16.30;;;4.15;;
37535;SDS011;23379;51.554;6.736;2023-11-19T08:29:30;19.35;;;4.28;;
37535;SDS011;23379;51.554;6.736;2023-11-19T08:31:55;27.75;;;5.18;;
37535;SDS011;23379;51.554;6.736;2023-11-19T08:34:21;28.33;;;4.65;;
37535;SDS011;23379;51.554;6.736;2023-11-19T08:36:49;24.30;;;4.50;;
37535;SDS011;23379;51.554;6.736;2023-11-19T08:39:15;16.58;;;3.83;;
37535;SDS011;23379;51.554;6.736;2023-11-19T08:41:45;19.38;;;4.00;;
37535;SDS011;23379;51.554;6.736;2023-11-19T08:44:10;23.25;;;4.68;;
37535;SDS011;23379;51.554;6.736;2023-11-19T08:46:35;20.38;;;4.13;;
37535;SDS011;23379;51.554;6.736;2023-11-19T08:49:01;23.88;;;4.63;;
37535;SDS011;23379;51.554;6.736;2023-11-19T08:51:26;22.75;;;4.57;;
37535;SDS011;23379;51.554;6.736;2023-11-19T08:53:53;23.90;;;4.55;;
37535;SDS011;23379;51.554;6.736;2023-11-19T08:56:18;18.58;;;3.38;;
37535;SDS011;23379;51.554;6.736;2023-11-19T08:58:43;24.30;;;4.13;;
37535;SDS011;23379;51.554;6.736;2023-11-19T09:01:09;31.42;;;4.88;;
37535;SDS011;23379;51.554;6.736;2023-11-19T09:03:34;20.38;;;4.18;;
37535;SDS011;23379;51.554;6.736;2023-11-19T09:06:00;25.88;;;5.03;;
37535;SDS011;23379;51.554;6.736;2023-11-19T09:08:26;26.42;;;4.57;;
37535;SDS011;23379;51.554;6.736;2023-11-19T09:10:56;32.45;;;4.75;;
37535;SDS011;23379;51.554;6.736;2023-11-19T09:13:22;20.95;;;3.78;;
37535;SDS011;23379;51.554;6.736;2023-11-19T09:15:48;24.05;;;4.35;;
37535;SDS011;23379;51.554;6.736;2023-11-19T09:18:19;31.45;;;4.70;;
37535;SDS011;23379;51.554;6.736;2023-11-19T09:20:45;19.40;;;4.60;;
37535;SDS011;23379;51.554;6.736;2023-11-19T09:23:10;30.00;;;5.43;;
37535;SDS011;23379;51.554;6.736;2023-11-19T09:25:37;27.77;;;4.70;;
37535;SDS011;23379;51.554;6.736;2023-11-19T09:28:02;18.48;;;4.47;;
37535;SDS011;23379;51.554;6.736;2023-11-19T09:30:28;26.00;;;4.47;;
37535;SDS011;23379;51.554;6.736;2023-11-19T09:32:54;23.85;;;3.72;;
37535;SDS011;23379;51.554;6.736;2023-11-19T09:35:19;26.17;;;4.45;;
37535;SDS011;23379;51.554;6.736;2023-11-19T09:37:44;21.83;;;4.18;;
37535;SDS011;23379;51.554;6.736;2023-11-19T09:40:10;22.45;;;4.38;;
37535;SDS011;23379;51.554;6.736;2023-11-19T09:42:45;24.38;;;4.25;;
37535;SDS011;23379;51.554;6.736;2023-11-19T09:45:13;26.92;;;4.32;;
37535;SDS011;23379;51.554;6.736;2023-11-19T09:47:44;22.35;;;4.45;;
37535;SDS011;23379;51.554;6.736;2023-11-19T09:50:17;22.95;;;4.40;;
37535;SDS011;23379;51.554;6.736;2023-11-19T09:52:44;17.55;;;3.80;;
37535;SDS011;23379;51.554;6.736;2023-11-19T09:55:10;22.88;;;4.35;;
37535;SDS011;23379;51.554;6.736;2023-11-19T09:57:35;27.73;;;4.13;;
37535;SDS011;23379;51.554;6.736;2023-11-19T10:00:03;23.95;;;4.65;;
37535;SDS011;23379;51.554;6.736;2023-11-19T10:02:33;20.08;;;4.07;;
37535;SDS011;23379;51.554;6.736;2023-11-19T10:05:11;23.83;;;4.60;;
37535;SDS011;23379;51.554;6.736;2023-11-19T10:07:38;19.75;;;3.53;;
37535;SDS011;23379;51.554;6.736;2023-11-19T10:10:04;27.75;;;4.63;;
37535;SDS011;23379;51.554;6.736;2023-11-19T10:12:30;28.75;;;4.65;;
37535;SDS011;23379;51.554;6.736;2023-11-19T10:14:59;26.35;;;4.32;;
37535;SDS011;23379;51.554;6.736;2023-11-19T10:17:34;28.63;;;5.10;;
37535;SDS011;23379;51.554;6.736;2023-11-19T10:19:59;28.25;;;4.28;;
37535;SDS011;23379;51.554;6.736;2023-11-19T10:22:26;23.90;;;4.05;;
37535;SDS011;23379;51.554;6.736;2023-11-19T10:24:52;22.27;;;4.75;;
37535;SDS011;23379;51.554;6.736;2023-11-19T10:27:18;20.95;;;4.57;;
37535;SDS011;23379;51.554;6.736;2023-11-19T10:29:46;22.00;;;4.40;;
37535;SDS011;23379;51.554;6.736;2023-11-19T10:32:13;23.48;;;4.28;;
37535;SDS011;23379;51.554;6.736;2023-11-19T10:34:40;23.08;;;4.85;;
37535;SDS011;23379;51.554;6.736;2023-11-19T10:37:06;32.58;;;4.95;;
37535;SDS011;23379;51.554;6.736;2023-11-19T10:39:51;21.25;;;4.05;;
37535;SDS011;23379;51.554;6.736;2023-11-19T10:42:19;22.42;;;4.68;;
37535;SDS011;23379;51.554;6.736;2023-11-19T10:44:45;23.40;;;4.45;;
37535;SDS011;23379;51.554;6.736;2023-11-19T10:47:11;28.00;;;4.90;;
37535;SDS011;23379;51.554;6.736;2023-11-19T10:49:38;20.75;;;3.75;;
37535;SDS011;23379;51.554;6.736;2023-11-19T10:52:03;21.60;;;4.00;;
37535;SDS011;23379;51.554;6.736;2023-11-19T10:54:30;20.20;;;4.00;;
37535;SDS011;23379;51.554;6.736;2023-11-19T10:56:58;24.08;;;4.45;;
37535;SDS011;23379;51.554;6.736;2023-11-19T10:59:26;25.73;;;4.07;;
37535;SDS011;23379;51.554;6.736;2023-11-19T11:01:54;19.77;;;4.35;;
37535;SDS011;23379;51.554;6.736;2023-11-19T11:04:24;21.45;;;4.10;;
37535;SDS011;23379;51.554;6.736;2023-11-19T11:09:19;20.60;;;3.72;;
37535;SDS011;23379;51.554;6.736;2023-11-19T11:11:46;22.52;;;4.07;;
37535;SDS011;23379;51.554;6.736;2023-11-19T11:14:12;25.17;;;4.40;;
37535;SDS011;23379;51.554;6.736;2023-11-19T11:16:44;23.83;;;4.18;;
37535;SDS011;23379;51.554;6.736;2023-11-19T11:19:11;24.90;;;4.55;;
37535;SDS011;23379;51.554;6.736;2023-11-19T11:21:41;25.17;;;4.50;;
37535;SDS011;23379;51.554;6.736;2023-11-19T11:32:37;25.27;;;4.50;;
37535;SDS011;23379;51.554;6.736;2023-11-19T11:35:19;24.90;;;3.55;;
37535;SDS011;23379;51.554;6.736;2023-11-19T11:38:03;27.55;;;3.85;;
37535;SDS011;23379;51.554;6.736;2023-11-19T11:40:31;18.00;;;3.50;;
37535;SDS011;23379;51.554;6.736;2023-11-19T11:42:57;24.90;;;4.10;;
37535;SDS011;23379;51.554;6.736;2023-11-19T11:45:35;17.20;;;3.75;;
37535;SDS011;23379;51.554;6.736;2023-11-19T11:50:47;19.23;;;3.28;;
37535;SDS011;23379;51.554;6.736;2023-11-19T11:53:18;19.42;;;3.67;;
37535;SDS011;23379;51.554;6.736;2023-11-19T11:58:21;17.80;;;3.45;;
37535;SDS011;23379;51.554;6.736;2023-11-19T12:00:51;17.95;;;3.97;;
37535;SDS011;23379;51.554;6.736;2023-11-19T12:03:17;19.20;;;3.85;;
37535;SDS011;23379;51.554;6.736;2023-11-19T12:05:46;16.17;;;3.10;;
37535;SDS011;23379;51.554;6.736;2023-11-19T12:08:12;22.65;;;4.03;;
37535;SDS011;23379;51.554;6.736;2023-11-19T12:10:50;22.25;;;3.70;;
37535;SDS011;23379;51.554;6.736;2023-11-19T12:13:20;15.18;;;3.65;;
37535;SDS011;23379;51.554;6.736;2023-11-19T12:18:28;20.25;;;3.78;;
37535;SDS011;23379;51.554;6.736;2023-11-19T12:20:55;19.92;;;3.92;;
37535;SDS011;23379;51.554;6.736;2023-11-19T12:23:22;22.38;;;3.38;;
37535;SDS011;23379;51.554;6.736;2023-11-19T12:25:50;17.77;;;4.28;;
37535;SDS011;23379;51.554;6.736;2023-11-19T12:28:16;20.40;;;3.25;;
37535;SDS011;23379;51.554;6.736;2023-11-19T12:30:42;20.45;;;3.92;;
37535;SDS011;23379;51.554;6.736;2023-11-19T12:33:09;19.98;;;4.38;;
37535;SDS011;23379;51.554;6.736;2023-11-19T12:35:41;23.23;;;4.18;;
37535;SDS011;23379;51.554;6.736;2023-11-19T12:38:08;24.40;;;4.05;;
37535;SDS011;23379;51.554;6.736;2023-11-19T12:40:46;20.48;;;4.22;;
37535;SDS011;23379;51.554;6.736;2023-11-19T12:43:11;13.45;;;3.25;;
37535;SDS011;23379;51.554;6.736;2023-11-19T12:45:46;19.95;;;4.25;;
37535;SDS011;23379;51.554;6.736;2023-11-19T12:48:11;20.48;;;3.65;;
37535;SDS011;23379;51.554;6.736;2023-11-19T12:53:22;19.10;;;3.65;;
37535;SDS011;23379;51.554;6.736;2023-11-19T12:55:49;14.80;;;2.90;;
37535;SDS011;23379;51.554;6.736;2023-11-19T12:58:28;14.57;;;2.95;;
37535;SDS011;23379;51.554;6.736;2023-11-19T13:01:05;15.05;;;3.00;;
37535;SDS011;23379;51.554;6.736;2023-11-19T13:03:31;15.57;;;3.47;;
37535;SDS011;23379;51.554;6.736;2023-11-19T13:06:02;17.85;;;2.72;;
37535;SDS011;23379;51.554;6.736;2023-11-19T13:08:44;10.45;;;2.65;;
37535;SDS011;23379;51.554;6.736;2023-11-19T13:11:11;14.30;;;3.38;;
37535;SDS011;23379;51.554;6.736;2023-11-19T13:13:57;13.35;;;2.92;;
37535;SDS011;23379;51.554;6.736;2023-11-19T13:16:24;9.35;;;2.40;;
37535;SDS011;23379;51.554;6.736;2023-11-19T13:18:50;14.98;;;2.92;;
37535;SDS011;23379;51.554;6.736;2023-11-19T13:21:16;20.52;;;3.10;;
37535;SDS011;23379;51.554;6.736;2023-11-19T13:23:41;15.38;;;2.53;;
37535;SDS011;23379;51.554;6.736;2023-11-19T13:26:08;19.77;;;2.90;;
37535;SDS011;23379;51.554;6.736;2023-11-19T13:28:33;15.85;;;3.20;;
37535;SDS011;23379;51.554;6.736;2023-11-19T13:30:59;20.80;;;3.50;;
37535;SDS011;23379;51.554;6.736;2023-11-19T13:33:24;14.95;;;3.17;;
37535;SDS011;23379;51.554;6.736;2023-11-19T13:35:49;18.13;;;3.63;;
37535;SDS011;23379;51.554;6.736;2023-11-19T13:38:15;16.60;;;2.97;;
37535;SDS011;23379;51.554;6.736;2023-11-19T13:40:40;13.65;;;2.50;;
37535;SDS011;23379;51.554;6.736;2023-11-19T13:43:05;15.88;;;2.95;;
37535;SDS011;23379;51.554;6.736;2023-11-19T13:45:32;13.68;;;3.05;;
37535;SDS011;23379;51.554;6.736;2023-11-19T13:47:57;17.48;;;2.75;;
37535;SDS011;23379;51.554;6.736;2023-11-19T13:50:23;12.63;;;2.78;;
37535;SDS011;23379;51.554;6.736;2023-11-19T13:52:48;14.25;;;3.75;;
37535;SDS011;23379;51.554;6.736;2023-11-19T13:55:26;11.13;;;3.08;;
37535;SDS011;23379;51.554;6.736;2023-11-19T13:57:51;15.15;;;3.55;;
37535;SDS011;23379;51.554;6.736;2023-11-19T14:00:17;18.20;;;3.60;;
37535;SDS011;23379;51.554;6.736;2023-11-19T14:02:44;18.38;;;3.63;;
37535;SDS011;23379;51.554;6.736;2023-11-19T14:05:10;15.35;;;3.50;;
37535;SDS011;23379;51.554;6.736;2023-11-19T14:07:36;19.27;;;3.60;;
37535;SDS011;23379;51.554;6.736;2023-11-19T14:10:02;13.25;;;3.97;;
37535;SDS011;23379;51.554;6.736;2023-11-19T14:12:30;25.67;;;4.43;;
37535;SDS011;23379;51.554;6.736;2023-11-19T14:14:55;12.15;;;3.05;;
37535;SDS011;23379;51.554;6.736;2023-11-19T14:17:21;16.48;;;3.20;;
37535;SDS011;23379;51.554;6.736;2023-11-19T14:19:46;22.27;;;3.85;;
37535;SDS011;23379;51.554;6.736;2023-11-19T14:22:11;22.27;;;3.80;;
37535;SDS011;23379;51.554;6.736;2023-11-19T14:24:37;18.00;;;3.72;;
37535;SDS011;23379;51.554;6.736;2023-11-19T14:27:03;15.25;;;3.35;;
37535;SDS011;23379;51.554;6.736;2023-11-19T14:29:28;16.25;;;3.75;;
37535;SDS011;23379;51.554;6.736;2023-11-19T14:31:54;16.88;;;3.47;;
37535;SDS011;23379;51.554;6.736;2023-11-19T14:34:20;15.38;;;3.53;;
37535;SDS011;23379;51.554;6.736;2023-11-19T14:36:46;15.20;;;3.13;;
37535;SDS011;23379;51.554;6.736;2023-11-19T14:39:12;17.80;;;3.50;;
37535;SDS011;23379;51.554;6.736;2023-11-19T14:41:37;14.60;;;3.47;;
37535;SDS011;23379;51.554;6.736;2023-11-19T14:44:03;9.80;;;2.95;;
37535;SDS011;23379;51.554;6.736;2023-11-19T14:46:29;18.65;;;3.50;;
37535;SDS011;23379;51.554;6.736;2023-11-19T14:48:54;18.38;;;3.30;;
37535;SDS011;23379;51.554;6.736;2023-11-19T14:51:20;23.05;;;4.40;;
37535;SDS011;23379;51.554;6.736;2023-11-19T14:53:45;12.02;;;3.22;;
37535;SDS011;23379;51.554;6.736;2023-11-19T14:56:11;9.55;;;2.75;;
37535;SDS011;23379;51.554;6.736;2023-11-19T14:58:39;13.35;;;3.28;;